Time;durP1;ratioP1;P1;durP2;ratioP2;P2;SDS_P1;SDS_P2;PMS_P1;PMS_P2;Temp;Humidity;BMP_temperature;BMP_pressure;BME280_temperature;BME280_humidity;BME280_pressure;Samples;Min_cycle;Max_cycle;Signal;HPM_P1;HPM_P2
2023/03/11 00:01:46;;;;;;;8.05;4.93;;;;;;;;;;5133543;28;20661;-66
2023/03/11 00:04:13;;;;;;;5.95;4.93;;;;;;;;;;5133955;28;20563;-66
2023/03/11 00:06:40;;;;;;;6.97;3.67;;;;;;;;;;5133593;28;20188;-66
2023/03/11 00:09:08;;;;;;;6.60;4.30;;;;;;;;;;5132432;28;20192;-67
2023/03/11 00:11:35;;;;;;;5.80;4.45;;;;;;;;;;5133255;28;20233;-66
2023/03/11 00:14:02;;;;;;;4.53;3.85;;;;;;;;;;5133300;28;20193;-66
2023/03/11 00:16:31;;;;;;;6.10;4.53;;;;;;;;;;5133551;28;20575;-67
2023/03/11 00:18:59;;;;;;;4.22;3.65;;;;;;;;;;5133067;28;20621;-67
2023/03/11 00:21:26;;;;;;;3.90;3.58;;;;;;;;;;5133078;28;20194;-67
2023/03/11 00:23:53;;;;;;;11.13;4.75;;;;;;;;;;5133446;28;20188;-67
2023/03/11 00:26:20;;;;;;;5.00;3.70;;;;;;;;;;5133752;28;20225;-67
2023/03/11 00:28:48;;;;;;;6.45;4.35;;;;;;;;;;5133164;28;20664;-67
2023/03/11 00:31:15;;;;;;;6.07;4.25;;;;;;;;;;5133018;28;20269;-68
2023/03/11 00:33:44;;;;;;;9.63;4.40;;;;;;;;;;5133669;28;20220;-67
2023/03/11 00:36:17;;;;;;;7.88;4.63;;;;;;;;;;5133270;28;20189;-67
2023/03/11 00:38:44;;;;;;;4.22;3.83;;;;;;;;;;5133083;27;20305;-67
2023/03/11 00:41:11;;;;;;;7.30;4.40;;;;;;;;;;5133698;27;20195;-67
2023/03/11 00:43:38;;;;;;;5.50;4.95;;;;;;;;;;5136593;27;20196;-67
2023/03/11 00:46:06;;;;;;;5.20;4.70;;;;;;;;;;5136596;27;20215;-67
2023/03/11 00:48:33;;;;;;;4.63;3.78;;;;;;;;;;5137127;27;20193;-67
2023/03/11 00:51:02;;;;;;;5.82;4.72;;;;;;;;;;5136567;27;20197;-67
2023/03/11 00:53:29;;;;;;;6.22;4.93;;;;;;;;;;5136827;27;20196;-67
2023/03/11 00:55:56;;;;;;;4.88;3.80;;;;;;;;;;5136811;27;20193;-67
2023/03/11 00:58:27;;;;;;;5.68;4.80;;;;;;;;;;5136777;27;20195;-67
2023/03/11 01:00:54;;;;;;;5.85;5.07;;;;;;;;;;5135075;27;20213;-67
2023/03/11 01:03:21;;;;;;;5.30;4.80;;;;;;;;;;5116030;27;20240;-68
2023/03/11 01:05:48;;;;;;;5.05;4.55;;;;;;;;;;5116351;28;20240;-67
2023/03/11 01:08:17;;;;;;;5.25;4.65;;;;;;;;;;5117783;27;20191;-67
2023/03/11 01:10:44;;;;;;;6.55;4.25;;;;;;;;;;5115695;28;20190;-66
2023/03/11 01:13:11;;;;;;;5.30;3.80;;;;;;;;;;5116123;28;20536;-66
2023/03/11 01:15:38;;;;;;;5.30;4.80;;;;;;;;;;5116044;28;20201;-66
2023/03/11 01:18:06;;;;;;;5.63;5.03;;;;;;;;;;5115361;28;20587;-67
2023/03/11 01:20:34;;;;;;;6.55;4.30;;;;;;;;;;5115655;28;20186;-67
2023/03/11 01:23:01;;;;;;;4.50;3.45;;;;;;;;;;5115662;28;20190;-67
2023/03/11 01:25:29;;;;;;;5.00;4.53;;;;;;;;;;5115568;28;20216;-66
2023/03/11 01:27:56;;;;;;;6.55;5.20;;;;;;;;;;5115499;28;20205;-66
2023/03/11 01:30:25;;;;;;;8.88;5.25;;;;;;;;;;5116127;28;20194;-66
2023/03/11 01:32:53;;;;;;;5.05;3.70;;;;;;;;;;5115404;28;20490;-66
2023/03/11 01:35:21;;;;;;;4.90;3.70;;;;;;;;;;5115307;28;20193;-66
2023/03/11 01:37:48;;;;;;;8.63;4.35;;;;;;;;;;5115058;28;20190;-66
2023/03/11 01:40:17;;;;;;;4.30;3.90;;;;;;;;;;5115047;28;20197;-66
2023/03/11 01:42:46;;;;;;;4.07;3.67;;;;;;;;;;5114993;28;20193;-66
2023/03/11 01:45:31;;;;;;;4.40;4.00;;;;;;;;;;5115205;28;20217;-66
2023/03/11 01:47:59;;;;;;;8.25;3.90;;;;;;;;;;5115419;28;20182;-66
2023/03/11 01:50:27;;;;;;;6.55;3.72;;;;;;;;;;5115606;28;20185;-66
2023/03/11 01:52:55;;;;;;;4.25;3.78;;;;;;;;;;5114297;28;20674;-66
2023/03/11 01:55:22;;;;;;;8.88;3.20;;;;;;;;;;5114843;28;20639;-67
2023/03/11 01:57:52;;;;;;;6.30;3.33;;;;;;;;;;5114940;28;20197;-66
2023/03/11 02:00:19;;;;;;;5.00;3.50;;;;;;;;;;5115299;28;20538;-66
2023/03/11 02:02:49;;;;;;;4.55;3.50;;;;;;;;;;5116641;27;20193;-67
2023/03/11 02:05:17;;;;;;;6.45;3.13;;;;;;;;;;5073978;28;20212;-67
2023/03/11 02:07:44;;;;;;;5.90;3.13;;;;;;;;;;5074071;28;20191;-67
2023/03/11 02:10:13;;;;;;;7.63;3.30;;;;;;;;;;5075537;28;20192;-66
2023/03/11 02:12:40;;;;;;;4.30;3.00;;;;;;;;;;5074099;28;20218;-67
2023/03/11 02:15:10;;;;;;;3.45;2.60;;;;;;;;;;5074173;28;20201;-66
2023/03/11 02:17:38;;;;;;;5.10;3.70;;;;;;;;;;5073683;28;20192;-67
2023/03/11 02:20:29;;;;;;;6.53;3.50;;;;;;;;;;5073965;28;20202;-66
2023/03/11 02:22:57;;;;;;;3.40;3.08;;;;;;;;;;5058469;28;20196;-67
2023/03/11 02:25:27;;;;;;;3.65;3.10;;;;;;;;;;5073535;28;20210;-67
2023/03/11 02:27:56;;;;;;;10.07;3.55;;;;;;;;;;5074099;28;20201;-67
2023/03/11 02:30:24;;;;;;;3.67;3.05;;;;;;;;;;5073473;28;20205;-67
2023/03/11 02:32:51;;;;;;;3.67;3.13;;;;;;;;;;5073101;28;20192;-67
2023/03/11 02:35:19;;;;;;;5.07;3.90;;;;;;;;;;5073709;28;20190;-66
2023/03/11 02:37:47;;;;;;;5.97;3.40;;;;;;;;;;5073638;28;20191;-67
2023/03/11 02:40:33;;;;;;;8.63;3.40;;;;;;;;;;5073751;28;20248;-66
2023/03/11 02:43:03;;;;;;;4.68;3.85;;;;;;;;;;5073484;28;20249;-67
2023/03/11 02:45:30;;;;;;;4.47;3.35;;;;;;;;;;5073880;28;20219;-67
2023/03/11 02:47:59;;;;;;;6.60;3.50;;;;;;;;;;5073088;28;20237;-67
2023/03/11 02:50:27;;;;;;;4.30;3.90;;;;;;;;;;5073268;28;20638;-66
2023/03/11 02:52:54;;;;;;;4.38;3.90;;;;;;;;;;5073722;28;20559;-67
2023/03/11 02:55:21;;;;;;;4.68;3.55;;;;;;;;;;5073152;28;20214;-66
2023/03/11 02:57:49;;;;;;;4.35;3.88;;;;;;;;;;5073379;28;20196;-67
2023/03/11 03:00:18;;;;;;;8.15;3.63;;;;;;;;;;5072973;28;20207;-66
2023/03/11 03:02:50;;;;;;;7.30;2.25;;;;;;;;;;5075073;28;20194;-66
2023/03/11 03:05:19;;;;;;;7.28;4.38;;;;;;;;;;5072448;28;20540;-66
2023/03/11 03:07:46;;;;;;;5.25;2.58;;;;;;;;;;5073139;28;20230;-67
2023/03/11 03:10:14;;;;;;;5.72;2.70;;;;;;;;;;5074244;28;20223;-66
2023/03/11 03:12:41;;;;;;;4.88;3.17;;;;;;;;;;5073148;28;20199;-66
2023/03/11 03:15:09;;;;;;;5.18;3.67;;;;;;;;;;5072756;28;20248;-66
2023/03/11 03:17:38;;;;;;;4.45;2.72;;;;;;;;;;5072849;28;20196;-66
2023/03/11 03:20:10;;;;;;;7.70;3.80;;;;;;;;;;5072968;28;20222;-66
2023/03/11 03:22:37;;;;;;;6.90;2.92;;;;;;;;;;5073370;28;20608;-66
2023/03/11 03:25:04;;;;;;;3.13;2.85;;;;;;;;;;5072861;28;20662;-66
2023/03/11 03:27:32;;;;;;;5.50;3.13;;;;;;;;;;5072928;28;20218;-66
2023/03/11 03:29:59;;;;;;;5.38;3.90;;;;;;;;;;5072961;28;20217;-67
2023/03/11 03:32:26;;;;;;;26.35;3.55;;;;;;;;;;5072932;28;20190;-66
2023/03/11 03:34:57;;;;;;;6.75;5.05;;;;;;;;;;5073093;28;20633;-66
2023/03/11 03:37:25;;;;;;;2.85;2.55;;;;;;;;;;5072565;28;20214;-66
2023/03/11 03:39:52;;;;;;;3.95;2.75;;;;;;;;;;5072852;28;20194;-65
2023/03/11 03:42:19;;;;;;;2.92;2.63;;;;;;;;;;5073119;28;20191;-67
2023/03/11 03:44:46;;;;;;;3.70;3.08;;;;;;;;;;5072729;28;20191;-66
2023/03/11 03:47:14;;;;;;;4.18;3.13;;;;;;;;;;5072400;28;20223;-67
2023/03/11 03:49:41;;;;;;;9.63;2.78;;;;;;;;;;5072694;28;20555;-66
2023/03/11 03:52:09;;;;;;;3.63;2.55;;;;;;;;;;5072740;28;20216;-67
2023/03/11 03:54:37;;;;;;;3.03;2.35;;;;;;;;;;5072379;28;20639;-67
2023/03/11 03:57:04;;;;;;;2.90;2.58;;;;;;;;;;5072815;28;20205;-67
2023/03/11 03:59:31;;;;;;;2.63;2.42;;;;;;;;;;5072505;28;20493;-67
2023/03/11 04:01:58;;;;;;;12.30;2.75;;;;;;;;;;5074899;28;20526;-67
2023/03/11 04:04:26;;;;;;;6.22;2.85;;;;;;;;;;5099396;28;20219;-67
2023/03/11 04:06:53;;;;;;;8.98;3.15;;;;;;;;;;5112833;28;20679;-67
2023/03/11 04:09:21;;;;;;;7.22;3.20;;;;;;;;;;5114792;28;20193;-66
2023/03/11 04:11:48;;;;;;;2.63;2.42;;;;;;;;;;5112758;28;20189;-67
2023/03/11 04:14:16;;;;;;;9.90;2.40;;;;;;;;;;5112693;28;20210;-67
2023/03/11 04:16:43;;;;;;;5.63;2.35;;;;;;;;;;5116351;28;20190;-69
2023/03/11 04:19:10;;;;;;;7.78;2.90;;;;;;;;;;5116488;28;20211;-68
2023/03/11 04:21:37;;;;;;;6.05;2.33;;;;;;;;;;5132389;27;20549;-68
2023/03/11 04:24:04;;;;;;;3.97;2.45;;;;;;;;;;5137146;27;20495;-68
2023/03/11 04:26:33;;;;;;;3.70;1.90;;;;;;;;;;5137229;27;20212;-68
2023/03/11 04:29:00;;;;;;;6.47;3.08;;;;;;;;;;5137223;27;20195;-67
2023/03/11 04:31:27;;;;;;;4.07;2.90;;;;;;;;;;5136733;27;20200;-67
2023/03/11 04:33:54;;;;;;;2.75;2.55;;;;;;;;;;5136840;27;20193;-68
2023/03/11 04:36:22;;;;;;;3.13;2.65;;;;;;;;;;5136945;27;20227;-68
2023/03/11 04:38:49;;;;;;;4.10;2.33;;;;;;;;;;5136685;27;20189;-69
2023/03/11 04:41:16;;;;;;;3.72;1.95;;;;;;;;;;5136797;27;20198;-68
2023/03/11 04:43:45;;;;;;;4.15;2.50;;;;;;;;;;5136951;27;20188;-68
2023/03/11 04:46:12;;;;;;;3.38;2.25;;;;;;;;;;5136919;27;20213;-68
2023/03/11 04:48:39;;;;;;;4.03;2.45;;;;;;;;;;5136839;27;20189;-67
2023/03/11 04:51:06;;;;;;;6.72;2.42;;;;;;;;;;5136303;27;20220;-67
2023/03/11 04:53:33;;;;;;;4.47;2.03;;;;;;;;;;5136694;27;20188;-67
2023/03/11 04:56:00;;;;;;;5.60;2.58;;;;;;;;;;5136196;27;20197;-67
2023/03/11 04:58:28;;;;;;;3.97;2.35;;;;;;;;;;5136449;27;20194;-68
2023/03/11 05:00:56;;;;;;;4.97;2.50;;;;;;;;;;5136455;27;20293;-68
2023/03/11 05:03:23;;;;;;;2.55;2.03;;;;;;;;;;5136160;27;20217;-68
2023/03/11 05:05:52;;;;;;;3.90;2.30;;;;;;;;;;5136208;27;20216;-68
2023/03/11 05:08:20;;;;;;;4.43;2.25;;;;;;;;;;5136547;27;20324;-67
2023/03/11 05:10:47;;;;;;;8.63;2.15;;;;;;;;;;5135956;27;20588;-68
2023/03/11 05:13:14;;;;;;;2.70;2.35;;;;;;;;;;5136007;27;20197;-68
2023/03/11 05:15:42;;;;;;;2.80;2.05;;;;;;;;;;5136282;27;20190;-68
2023/03/11 05:18:10;;;;;;;4.18;2.35;;;;;;;;;;5136121;27;20190;-68
2023/03/11 05:20:37;;;;;;;27.20;3.17;;;;;;;;;;5135525;27;20193;-68
2023/03/11 05:23:05;;;;;;;5.22;2.15;;;;;;;;;;5135660;27;20189;-68
2023/03/11 05:25:32;;;;;;;10.50;3.10;;;;;;;;;;5135609;27;20200;-68
2023/03/11 05:27:59;;;;;;;6.28;2.13;;;;;;;;;;5134824;27;20671;-68
2023/03/11 05:30:26;;;;;;;2.40;2.20;;;;;;;;;;5136030;27;20199;-68
2023/03/11 05:32:55;;;;;;;7.25;2.47;;;;;;;;;;5135982;27;20185;-67
2023/03/11 05:35:23;;;;;;;6.97;2.40;;;;;;;;;;5136050;27;20258;-68
2023/03/11 05:37:52;;;;;;;4.97;2.90;;;;;;;;;;5135356;27;20211;-67
2023/03/11 05:40:19;;;;;;;3.90;2.20;;;;;;;;;;5136196;27;20199;-68
2023/03/11 05:42:46;;;;;;;12.05;2.53;;;;;;;;;;5135505;27;20214;-68
2023/03/11 05:45:14;;;;;;;6.88;2.33;;;;;;;;;;5135191;27;20185;-68
2023/03/11 05:47:42;;;;;;;4.88;2.33;;;;;;;;;;5135455;27;20528;-68
2023/03/11 05:50:10;;;;;;;4.90;2.22;;;;;;;;;;5135025;27;20690;-68
2023/03/11 05:52:39;;;;;;;6.97;2.40;;;;;;;;;;5135456;27;20193;-67
2023/03/11 05:55:08;;;;;;;4.47;2.55;;;;;;;;;;5135455;27;20189;-68
2023/03/11 05:57:35;;;;;;;3.80;2.50;;;;;;;;;;5135389;27;20610;-69
2023/03/11 06:00:04;;;;;;;4.65;2.05;;;;;;;;;;5136056;27;20184;-67
2023/03/11 06:02:31;;;;;;;5.20;3.00;;;;;;;;;;5135004;27;20213;-67
2023/03/11 06:04:59;;;;;;;3.15;1.85;;;;;;;;;;5135216;27;20227;-67
2023/03/11 06:07:26;;;;;;;4.05;2.10;;;;;;;;;;5135156;27;20212;-67
2023/03/11 06:09:54;;;;;;;4.68;2.40;;;;;;;;;;5135123;27;20189;-68
2023/03/11 06:12:21;;;;;;;2.53;2.00;;;;;;;;;;5134834;27;20188;-67
2023/03/11 06:14:49;;;;;;;7.00;2.42;;;;;;;;;;5134876;27;20605;-68
2023/03/11 06:17:16;;;;;;;13.00;3.00;;;;;;;;;;5134650;27;20660;-67
2023/03/11 06:19:43;;;;;;;2.35;2.15;;;;;;;;;;5134513;27;20608;-67
2023/03/11 06:22:10;;;;;;;3.53;1.95;;;;;;;;;;5135066;27;20213;-68
2023/03/11 06:24:37;;;;;;;6.07;2.00;;;;;;;;;;5134756;27;20196;-68
2023/03/11 06:27:08;;;;;;;7.13;2.50;;;;;;;;;;5134541;27;20214;-67
2023/03/11 06:29:35;;;;;;;8.43;2.72;;;;;;;;;;5134943;27;20508;-68
2023/03/11 06:32:02;;;;;;;7.28;2.17;;;;;;;;;;5134933;27;20194;-67
2023/03/11 06:34:29;;;;;;;5.43;2.50;;;;;;;;;;5134950;27;20185;-67
2023/03/11 06:36:58;;;;;;;2.80;2.20;;;;;;;;;;5134288;27;20192;-68
2023/03/11 06:39:25;;;;;;;5.88;2.67;;;;;;;;;;5134331;27;20195;-68
2023/03/11 06:41:52;;;;;;;4.68;1.85;;;;;;;;;;5134491;27;20530;-68
2023/03/11 06:44:21;;;;;;;4.40;1.92;;;;;;;;;;5134741;27;20190;-67
2023/03/11 06:46:48;;;;;;;16.60;3.58;;;;;;;;;;5133996;27;20214;-67
2023/03/11 06:49:15;;;;;;;6.50;2.50;;;;;;;;;;5134184;27;20192;-68
2023/03/11 06:51:42;;;;;;;2.50;2.17;;;;;;;;;;5133961;27;20508;-68
2023/03/11 06:54:11;;;;;;;5.57;2.97;;;;;;;;;;5134399;27;20189;-67
2023/03/11 06:56:38;;;;;;;2.90;2.05;;;;;;;;;;5134350;27;20197;-67
2023/03/11 06:59:05;;;;;;;8.70;2.40;;;;;;;;;;5134259;27;20188;-67
2023/03/11 07:01:34;;;;;;;5.57;2.40;;;;;;;;;;5134174;27;20189;-68
2023/03/11 07:04:01;;;;;;;5.00;2.20;;;;;;;;;;5133618;27;20226;-67
2023/03/11 07:06:28;;;;;;;3.35;2.10;;;;;;;;;;5134030;27;20188;-68
2023/03/11 07:08:57;;;;;;;1.92;1.70;;;;;;;;;;5134374;27;20700;-67
2023/03/11 07:11:25;;;;;;;4.65;2.13;;;;;;;;;;5133955;27;20302;-68
2023/03/11 07:13:52;;;;;;;2.63;2.33;;;;;;;;;;5133930;27;20277;-70
2023/03/11 07:16:20;;;;;;;5.85;3.22;;;;;;;;;;5134369;27;20233;-67
2023/03/11 07:18:50;;;;;;;6.45;2.85;;;;;;;;;;5134185;27;20194;-68
2023/03/11 07:21:18;;;;;;;3.17;2.35;;;;;;;;;;5133719;27;20186;-69
2023/03/11 07:23:45;;;;;;;4.25;2.10;;;;;;;;;;5133802;27;20198;-68
2023/03/11 07:26:13;;;;;;;3.78;2.35;;;;;;;;;;5134010;27;20588;-68
2023/03/11 07:28:40;;;;;;;3.55;1.90;;;;;;;;;;5133646;27;20215;-68
2023/03/11 07:31:08;;;;;;;6.55;2.20;;;;;;;;;;5133501;28;20238;-68
2023/03/11 07:33:37;;;;;;;6.45;1.80;;;;;;;;;;5133487;28;20542;-68
2023/03/11 07:36:09;;;;;;;3.72;2.45;;;;;;;;;;5133841;28;20194;-68
2023/03/11 07:38:37;;;;;;;4.60;2.00;;;;;;;;;;5133755;28;20200;-68
2023/03/11 07:41:04;;;;;;;2.85;2.05;;;;;;;;;;5133807;28;20195;-68
2023/03/11 07:43:32;;;;;;;3.50;2.30;;;;;;;;;;5133710;28;20188;-68
2023/03/11 07:46:06;;;;;;;6.30;2.40;;;;;;;;;;5133328;28;20657;-68
2023/03/11 07:48:33;;;;;;;9.05;2.67;;;;;;;;;;5133350;28;20210;-69
2023/03/11 07:51:01;;;;;;;4.15;2.30;;;;;;;;;;5136023;27;20296;-68
2023/03/11 07:53:30;;;;;;;4.70;2.30;;;;;;;;;;5137821;27;20200;-68
2023/03/11 07:55:57;;;;;;;7.47;2.90;;;;;;;;;;5137752;27;20189;-68
2023/03/11 07:58:24;;;;;;;1.35;1.25;;;;;;;;;;5137755;27;20198;-68
2023/03/11 08:00:51;;;;;;;6.13;1.80;;;;;;;;;;5137784;27;20614;-68
2023/03/11 08:03:19;;;;;;;7.18;2.03;;;;;;;;;;5137078;27;20213;-68
2023/03/11 08:05:46;;;;;;;4.68;2.50;;;;;;;;;;5137632;27;20186;-68
2023/03/11 08:08:13;;;;;;;6.63;2.08;;;;;;;;;;5137152;27;20213;-68
2023/03/11 08:10:42;;;;;;;8.63;2.13;;;;;;;;;;5137566;27;20605;-68
2023/03/11 08:13:09;;;;;;;7.70;2.30;;;;;;;;;;5137148;27;20281;-68
2023/03/11 08:15:37;;;;;;;5.53;2.60;;;;;;;;;;5137520;27;20197;-70
2023/03/11 08:18:05;;;;;;;3.78;2.90;;;;;;;;;;5137308;27;20188;-68
2023/03/11 08:20:32;;;;;;;5.00;2.10;;;;;;;;;;5137188;27;20243;-68
2023/03/11 08:22:59;;;;;;;2.67;2.40;;;;;;;;;;5137416;27;20192;-68
2023/03/11 08:25:27;;;;;;;2.30;1.98;;;;;;;;;;5137382;27;20280;-68
2023/03/11 08:27:55;;;;;;;4.93;2.47;;;;;;;;;;5137015;27;20219;-68
2023/03/11 08:30:22;;;;;;;2.58;1.80;;;;;;;;;;5136823;27;20200;-68
2023/03/11 08:32:50;;;;;;;2.38;1.65;;;;;;;;;;5136727;27;20193;-68
2023/03/11 08:35:17;;;;;;;8.00;2.83;;;;;;;;;;5136854;27;20189;-68
2023/03/11 08:37:44;;;;;;;8.90;2.35;;;;;;;;;;5136952;27;20200;-68
2023/03/11 08:40:13;;;;;;;10.15;2.47;;;;;;;;;;5137026;27;20196;-68
2023/03/11 08:42:40;;;;;;;3.28;2.47;;;;;;;;;;5136613;27;20586;-67
2023/03/11 08:45:10;;;;;;;5.60;2.63;;;;;;;;;;5136628;27;20212;-67
2023/03/11 08:47:38;;;;;;;9.50;2.42;;;;;;;;;;5136531;27;20210;-68
2023/03/11 08:50:07;;;;;;;3.88;1.90;;;;;;;;;;5136333;27;20186;-67
2023/03/11 08:52:34;;;;;;;6.45;2.22;;;;;;;;;;5136831;27;20352;-67
2023/03/11 08:55:02;;;;;;;3.67;1.52;;;;;;;;;;5136787;27;20190;-67
2023/03/11 08:57:29;;;;;;;2.97;1.98;;;;;;;;;;5136429;27;20245;-68
2023/03/11 08:59:57;;;;;;;6.97;2.53;;;;;;;;;;5136435;27;20280;-67
2023/03/11 09:02:25;;;;;;;6.75;2.35;;;;;;;;;;5135361;27;20282;-67
2023/03/11 09:04:52;;;;;;;3.70;2.03;;;;;;;;;;5136275;27;20218;-67
2023/03/11 09:07:20;;;;;;;9.60;2.00;;;;;;;;;;5136472;27;20191;-67
2023/03/11 09:09:47;;;;;;;6.45;2.00;;;;;;;;;;5136116;27;20193;-67
2023/03/11 09:12:14;;;;;;;2.88;2.10;;;;;;;;;;5136331;27;20223;-67
2023/03/11 09:14:41;;;;;;;2.45;1.80;;;;;;;;;;5135903;27;20206;-67
2023/03/11 09:17:09;;;;;;;3.97;2.30;;;;;;;;;;5135812;27;20282;-67
2023/03/11 09:19:37;;;;;;;2.08;1.83;;;;;;;;;;5136205;27;20191;-67
2023/03/11 09:22:05;;;;;;;1.85;1.70;;;;;;;;;;5115257;28;20192;-67
2023/03/11 09:24:33;;;;;;;2.30;2.10;;;;;;;;;;5115141;28;20202;-67
2023/03/11 09:27:00;;;;;;;3.88;2.28;;;;;;;;;;5115462;28;20549;-67
2023/03/11 09:29:28;;;;;;;3.95;2.00;;;;;;;;;;5115304;28;20211;-67
2023/03/11 09:31:55;;;;;;;2.65;1.83;;;;;;;;;;5115312;28;20243;-67
2023/03/11 09:34:22;;;;;;;4.28;2.20;;;;;;;;;;5115051;28;20202;-67
2023/03/11 09:36:51;;;;;;;8.50;1.35;;;;;;;;;;5115389;28;20185;-67
2023/03/11 09:39:18;;;;;;;6.93;1.80;;;;;;;;;;5115277;28;20198;-68
2023/03/11 09:41:50;;;;;;;11.50;4.25;;;;;;;;;;5115258;28;20198;-67
2023/03/11 09:44:19;;;;;;;4.50;1.70;;;;;;;;;;5114875;28;20640;-67
2023/03/11 09:47:01;;;;;;;2.42;2.22;;;;;;;;;;5114947;28;20198;-67
2023/03/11 09:49:35;;;;;;;1.92;1.73;;;;;;;;;;5112360;28;20213;-67
2023/03/11 09:52:07;;;;;;;11.55;2.47;;;;;;;;;;5135369;27;20538;-67
2023/03/11 09:54:39;;;;;;;7.07;2.45;;;;;;;;;;5135972;27;20183;-67
2023/03/11 09:57:09;;;;;;;2.13;1.42;;;;;;;;;;5135859;27;20175;-67
2023/03/11 09:59:37;;;;;;;4.00;1.85;;;;;;;;;;5135209;27;20202;-66
2023/03/11 10:02:05;;;;;;;2.72;1.70;;;;;;;;;;5135332;27;20197;-66
2023/03/11 10:04:36;;;;;;;3.70;1.77;;;;;;;;;;5135162;27;20659;-66
2023/03/11 10:07:10;;;;;;;4.32;2.10;;;;;;;;;;5135248;27;20199;-66
2023/03/11 10:09:39;;;;;;;5.82;1.90;;;;;;;;;;5134699;27;20213;-67
2023/03/11 10:12:15;;;;;;;1.80;1.70;;;;;;;;;;5134853;27;20204;-66
2023/03/11 10:14:47;;;;;;;4.78;2.10;;;;;;;;;;5134643;27;20182;-66
2023/03/11 10:17:19;;;;;;;5.57;1.45;;;;;;;;;;5134783;27;20176;-66
2023/03/11 10:19:49;;;;;;;3.17;1.85;;;;;;;;;;5134335;27;20185;-66
2023/03/11 10:22:21;;;;;;;2.33;1.73;;;;;;;;;;5134643;27;20195;-66
2023/03/11 10:24:58;;;;;;;1.55;1.45;;;;;;;;;;5135031;27;20189;-66
2023/03/11 10:27:30;;;;;;;2.55;1.58;;;;;;;;;;5135036;27;20183;-66
2023/03/11 10:29:58;;;;;;;2.85;1.70;;;;;;;;;;5134362;27;20183;-66
2023/03/11 10:32:30;;;;;;;8.13;1.70;;;;;;;;;;5134943;27;20198;-66
2023/03/11 10:34:59;;;;;;;5.90;1.70;;;;;;;;;;5134954;27;20195;-66
2023/03/11 10:37:30;;;;;;;2.95;1.58;;;;;;;;;;5134918;27;20487;-66
2023/03/11 10:40:04;;;;;;;1.25;1.15;;;;;;;;;;5134296;27;20650;-66
2023/03/11 10:42:33;;;;;;;4.30;1.30;;;;;;;;;;5134734;27;20228;-66
2023/03/11 10:45:01;;;;;;;1.63;1.50;;;;;;;;;;5134189;27;20210;-66
2023/03/11 10:47:29;;;;;;;1.65;1.55;;;;;;;;;;5134518;27;20195;-66
2023/03/11 10:49:57;;;;;;;3.05;2.15;;;;;;;;;;5134140;27;20234;-66
2023/03/11 10:52:24;;;;;;;2.22;1.60;;;;;;;;;;5134588;27;20187;-67
2023/03/11 10:55:01;;;;;;;2.10;1.50;;;;;;;;;;5134320;27;20191;-64
2023/03/11 10:57:29;;;;;;;2.90;1.30;;;;;;;;;;5134453;27;20180;-67
2023/03/11 10:59:57;;;;;;;4.63;1.30;;;;;;;;;;5133837;27;20201;-67
2023/03/11 11:02:26;;;;;;;2.88;1.33;;;;;;;;;;5134288;27;20201;-67
2023/03/11 11:05:05;;;;;;;2.35;1.30;;;;;;;;;;5134370;27;20230;-67
2023/03/11 11:07:34;;;;;;;2.33;1.50;;;;;;;;;;5134503;27;20177;-67
2023/03/11 11:10:19;;;;;;;7.55;1.98;;;;;;;;;;5133761;27;20246;-67
2023/03/11 11:12:56;;;;;;;3.55;1.60;;;;;;;;;;5134161;27;20179;-67
2023/03/11 11:15:28;;;;;;;5.35;1.50;;;;;;;;;;5134093;27;20195;-67
2023/03/11 11:17:56;;;;;;;4.50;1.60;;;;;;;;;;5133610;27;20192;-67
2023/03/11 11:20:24;;;;;;;3.67;1.40;;;;;;;;;;5133510;27;20658;-67
2023/03/11 11:22:53;;;;;;;3.35;1.88;;;;;;;;;;5134326;27;20191;-67
2023/03/11 11:25:29;;;;;;;2.88;1.45;;;;;;;;;;5133357;27;20194;-68
2023/03/11 11:27:57;;;;;;;2.25;2.10;;;;;;;;;;5133817;27;20195;-67
2023/03/11 11:30:25;;;;;;;2.97;1.95;;;;;;;;;;5133660;27;20194;-67
2023/03/11 11:32:54;;;;;;;13.65;2.40;;;;;;;;;;5134013;28;20191;-66
2023/03/11 11:35:22;;;;;;;4.35;1.88;;;;;;;;;;5134147;28;20196;-67
2023/03/11 11:37:50;;;;;;;2.58;1.50;;;;;;;;;;5133705;28;20191;-67
2023/03/11 11:40:24;;;;;;;8.77;1.48;;;;;;;;;;5133792;28;20194;-67
2023/03/11 11:42:54;;;;;;;3.60;1.50;;;;;;;;;;5134355;28;20177;-67
2023/03/11 11:45:27;;;;;;;3.35;1.60;;;;;;;;;;5134246;28;20190;-67
2023/03/11 11:47:56;;;;;;;3.45;1.63;;;;;;;;;;5133994;27;20179;-67
2023/03/11 11:50:27;;;;;;;3.17;1.58;;;;;;;;;;5133869;28;20198;-68
2023/03/11 11:52:57;;;;;;;1.55;1.45;;;;;;;;;;5134062;28;20198;-67
2023/03/11 11:55:25;;;;;;;7.43;2.10;;;;;;;;;;5134050;28;20659;-67
2023/03/11 11:57:53;;;;;;;5.10;1.90;;;;;;;;;;5133801;28;20199;-68
2023/03/11 12:00:24;;;;;;;7.43;1.98;;;;;;;;;;5133311;28;20198;-68
2023/03/11 12:03:02;;;;;;;5.65;2.00;;;;;;;;;;5133137;28;20176;-68
2023/03/11 12:05:31;;;;;;;2.95;1.50;;;;;;;;;;5133349;28;20177;-68
2023/03/11 12:08:03;;;;;;;3.15;1.42;;;;;;;;;;5133390;28;20637;-67
2023/03/11 12:10:33;;;;;;;3.13;1.70;;;;;;;;;;5133147;28;20176;-68
2023/03/11 12:13:20;;;;;;;2.05;1.52;;;;;;;;;;5134101;28;20187;-67
2023/03/11 12:15:50;;;;;;;4.30;1.60;;;;;;;;;;5134012;28;20214;-68
2023/03/11 12:18:19;;;;;;;7.18;2.03;;;;;;;;;;5133919;28;20198;-68
2023/03/11 12:20:48;;;;;;;3.33;1.75;;;;;;;;;;5130646;28;20195;-68
2023/03/11 12:23:20;;;;;;;2.22;1.75;;;;;;;;;;5133410;28;20292;-68
2023/03/11 12:25:55;;;;;;;1.80;1.45;;;;;;;;;;5133154;28;20199;-68
2023/03/11 12:28:28;;;;;;;1.60;1.50;;;;;;;;;;5133091;28;20182;-69
2023/03/11 12:30:57;;;;;;;1.55;1.45;;;;;;;;;;5132965;28;20656;-68
2023/03/11 12:33:28;;;;;;;8.77;1.65;;;;;;;;;;5133591;28;20202;-67
2023/03/11 12:35:56;;;;;;;10.40;2.03;;;;;;;;;;5133786;27;20259;-68
2023/03/11 12:38:28;;;;;;;1.77;1.67;;;;;;;;;;5136639;27;20188;-68
2023/03/11 12:41:00;;;;;;;2.35;1.42;;;;;;;;;;5136925;27;20218;-69
2023/03/11 12:43:42;;;;;;;1.95;1.73;;;;;;;;;;5136982;27;20194;-68
2023/03/11 12:46:11;;;;;;;1.55;1.45;;;;;;;;;;5124060;27;20186;-68
2023/03/11 12:48:43;;;;;;;1.80;1.10;;;;;;;;;;5136652;27;20212;-68
2023/03/11 12:51:25;;;;;;;1.60;1.50;;;;;;;;;;5136846;27;20176;-68
2023/03/11 12:53:53;;;;;;;3.47;1.95;;;;;;;;;;5136630;27;20214;-68
2023/03/11 12:56:25;;;;;;;6.43;1.90;;;;;;;;;;5136365;27;20188;-68
2023/03/11 12:58:59;;;;;;;1.95;1.75;;;;;;;;;;5136634;27;20569;-68
2023/03/11 13:01:51;;;;;;;2.20;1.50;;;;;;;;;;5136610;27;20184;-68
2023/03/11 13:04:23;;;;;;;1.50;1.40;;;;;;;;;;5136096;27;20222;-68
2023/03/11 13:07:02;;;;;;;2.55;1.50;;;;;;;;;;5135929;27;20182;-68
2023/03/11 13:09:29;;;;;;;2.65;1.48;;;;;;;;;;5136510;27;20204;-67
2023/03/11 13:11:56;;;;;;;4.85;1.90;;;;;;;;;;5136366;27;20191;-67
2023/03/11 13:14:28;;;;;;;1.98;1.60;;;;;;;;;;5136250;27;20201;-67
2023/03/11 13:16:58;;;;;;;2.25;1.58;;;;;;;;;;5136160;27;20187;-67
2023/03/11 13:19:38;;;;;;;2.22;1.55;;;;;;;;;;5136056;27;20270;-67
2023/03/11 13:22:06;;;;;;;3.50;1.20;;;;;;;;;;5136354;27;20211;-67
2023/03/11 13:24:52;;;;;;;4.80;1.30;;;;;;;;;;5135816;27;20202;-67
2023/03/11 13:27:33;;;;;;;1.50;1.40;;;;;;;;;;5135788;27;20185;-67
2023/03/11 13:30:04;;;;;;;1.40;1.30;;;;;;;;;;5136129;27;20215;-67
2023/03/11 13:32:49;;;;;;;4.97;1.70;;;;;;;;;;5136123;27;20201;-67
2023/03/11 13:35:25;;;;;;;3.05;2.53;;;;;;;;;;5122384;27;20300;-66
2023/03/11 13:37:57;;;;;;;2.38;1.73;;;;;;;;;;5135587;27;20176;-66
2023/03/11 13:40:30;;;;;;;1.50;1.40;;;;;;;;;;5136176;27;20195;-67
2023/03/11 13:42:59;;;;;;;5.35;1.80;;;;;;;;;;5135446;27;20186;-66
2023/03/11 13:45:28;;;;;;;2.80;1.60;;;;;;;;;;5135785;27;20200;-66
2023/03/11 13:47:58;;;;;;;1.90;1.80;;;;;;;;;;5134630;27;20198;-66
2023/03/11 13:50:29;;;;;;;2.60;2.30;;;;;;;;;;5135507;27;20204;-66
2023/03/11 13:52:57;;;;;;;4.65;1.77;;;;;;;;;;5135563;27;20532;-66
2023/03/11 13:55:27;;;;;;;4.82;2.30;;;;;;;;;;5135501;27;20198;-65
2023/03/11 13:57:55;;;;;;;2.38;1.75;;;;;;;;;;5135020;27;20209;-65
2023/03/11 14:00:24;;;;;;;2.20;1.70;;;;;;;;;;5135353;27;20195;-64
2023/03/11 14:02:54;;;;;;;3.80;2.22;;;;;;;;;;5134585;27;20613;-65
2023/03/11 14:05:23;;;;;;;5.38;2.00;;;;;;;;;;5135500;27;20186;-65
2023/03/11 14:07:51;;;;;;;6.38;2.75;;;;;;;;;;5135204;27;20193;-65
2023/03/11 14:10:20;;;;;;;2.22;1.80;;;;;;;;;;5134777;27;20302;-65
2023/03/11 14:12:47;;;;;;;3.47;2.05;;;;;;;;;;5134913;27;20282;-65
2023/03/11 14:15:16;;;;;;;3.83;1.73;;;;;;;;;;5135466;27;20294;-65
2023/03/11 14:17:44;;;;;;;2.80;1.90;;;;;;;;;;5135389;27;20203;-65
2023/03/11 14:20:15;;;;;;;3.08;2.28;;;;;;;;;;5135160;27;20195;-65
2023/03/11 14:22:44;;;;;;;3.25;1.83;;;;;;;;;;5134891;27;20194;-65
2023/03/11 14:25:17;;;;;;;4.40;1.80;;;;;;;;;;5134629;27;20199;-65
2023/03/11 14:27:47;;;;;;;3.13;1.80;;;;;;;;;;5134495;27;20191;-65
2023/03/11 14:30:20;;;;;;;1.83;1.73;;;;;;;;;;5134756;27;20223;-65
2023/03/11 14:32:56;;;;;;;2.58;1.63;;;;;;;;;;5134550;27;20534;-65
2023/03/11 14:35:23;;;;;;;4.53;1.90;;;;;;;;;;5135136;27;20179;-65
2023/03/11 14:37:51;;;;;;;1.58;1.45;;;;;;;;;;5134596;27;20188;-65
2023/03/11 14:40:24;;;;;;;3.03;1.77;;;;;;;;;;5134390;27;20198;-65
2023/03/11 14:42:53;;;;;;;3.33;1.67;;;;;;;;;;5132951;27;20191;-66
2023/03/11 14:45:22;;;;;;;1.80;1.40;;;;;;;;;;5134236;27;20668;-65
2023/03/11 14:47:52;;;;;;;2.50;1.30;;;;;;;;;;5134093;27;20196;-66
2023/03/11 14:50:21;;;;;;;3.35;1.73;;;;;;;;;;5134352;27;20215;-65
2023/03/11 14:52:49;;;;;;;2.20;1.70;;;;;;;;;;5134059;27;20641;-65
2023/03/11 14:55:18;;;;;;;1.50;1.38;;;;;;;;;;5132100;27;20184;-66